createdAt,value
2022-11-04T00:01:33.039Z,0.75
2022-11-04T00:04:00.171Z,0.37
2022-11-04T00:06:27.363Z,0.42
2022-11-04T00:08:57.181Z,0.68
2022-11-04T00:11:43.163Z,0.64
2022-11-04T00:14:11.780Z,0.74
2022-11-04T00:16:57.808Z,0.59
2022-11-04T00:19:25.186Z,0.70
2022-11-04T00:22:11.637Z,0.40
2022-11-04T00:24:57.303Z,0.61
2022-11-04T00:27:43.134Z,0.06
2022-11-04T00:30:11.270Z,0.60
2022-11-04T00:32:56.869Z,-0.06
2022-11-04T00:35:23.963Z,0.51
2022-11-04T00:37:51.393Z,0.73
2022-11-04T00:40:18.700Z,0.67
2022-11-04T00:42:46.708Z,0.76
2022-11-04T00:45:13.975Z,0.78
2022-11-04T00:47:41.109Z,0.58
2022-11-04T00:50:08.896Z,0.48
2022-11-04T00:52:36.103Z,0.46
2022-11-04T00:55:04.050Z,0.66
2022-11-04T00:57:31.274Z,0.53
2022-11-04T00:59:58.421Z,-1.34
2022-11-04T01:02:26.563Z,0.69
2022-11-04T01:04:53.857Z,0.68
2022-11-04T01:07:20.979Z,0.34
2022-11-04T01:09:50.343Z,0.66
2022-11-04T01:12:17.643Z,0.66
2022-11-04T01:14:45.244Z,0.54
2022-11-04T01:17:12.295Z,0.65
2022-11-04T01:19:39.353Z,0.61
2022-11-04T01:22:06.423Z,0.53
2022-11-04T01:24:33.632Z,0.61
2022-11-04T01:27:00.820Z,0.44
2022-11-04T01:29:28.139Z,0.65
2022-11-04T01:31:55.265Z,0.56
2022-11-04T01:34:22.475Z,0.57
2022-11-04T01:36:49.545Z,0.45
2022-11-04T01:39:16.623Z,-0.55
2022-11-04T01:41:44.016Z,0.56
2022-11-04T01:44:42.107Z,0.72
2022-11-04T01:47:20.102Z,0.69
2022-11-04T01:49:52.873Z,0.68
2022-11-04T01:52:30.153Z,0.78
2022-11-04T01:55:03.316Z,0.59
2022-11-04T01:57:39.384Z,0.65
2022-11-04T02:00:09.050Z,0.59
2022-11-04T02:02:53.995Z,0.63
2022-11-04T02:05:22.533Z,0.51
2022-11-04T02:07:53.162Z,-0.03
2022-11-04T02:10:22.796Z,0.61
2022-11-04T02:12:50.112Z,0.51
2022-11-04T02:15:43.581Z,0.54
2022-11-04T02:18:27.484Z,0.43
2022-11-04T02:21:13.650Z,0.41
2022-11-04T02:23:58.885Z,0.73
2022-11-04T02:26:50.023Z,0.76
2022-11-04T02:29:58.471Z,0.15
2022-11-04T02:32:52.971Z,0.88
2022-11-04T02:35:35.053Z,-0.90
2022-11-04T02:38:37.440Z,0.85
2022-11-04T02:41:13.385Z,0.83
2022-11-04T02:43:49.810Z,0.35
2022-11-04T02:46:19.651Z,0.80
2022-11-04T02:48:54.922Z,0.84
2022-11-04T02:51:28.613Z,-0.19
2022-11-04T02:54:22.467Z,0.91
2022-11-04T02:56:52.819Z,0.75
2022-11-04T03:00:01.636Z,0.84
2022-11-04T03:02:56.633Z,0.68
2022-11-04T03:05:31.211Z,0.63
2022-11-04T03:08:04.556Z,0.78
2022-11-04T03:10:40.357Z,0.32
2022-11-04T03:13:14.443Z,0.73
2022-11-04T03:15:49.758Z,-0.05
2022-11-04T03:18:55.287Z,0.75
2022-11-04T03:21:23.550Z,0.14
2022-11-04T03:23:50.826Z,0.53
2022-11-04T03:26:20.971Z,0.62
2022-11-04T03:29:06.128Z,0.24
2022-11-04T03:32:01.229Z,0.56
2022-11-04T03:34:28.668Z,0.37
2022-11-04T03:36:56.463Z,-0.06
2022-11-04T03:39:23.886Z,0.31
2022-11-04T03:42:00.712Z,0.26
2022-11-04T03:44:30.399Z,0.45
2022-11-04T03:46:57.588Z,0.25
2022-11-04T03:49:25.310Z,0.51
2022-11-04T03:51:53.065Z,0.40
2022-11-04T03:54:21.138Z,0.66
2022-11-04T03:56:54.054Z,0.70
2022-11-04T04:00:07.154Z,0.82
2022-11-04T04:02:46.642Z,0.29
2022-11-04T04:05:20.863Z,0.81
2022-11-04T04:08:26.654Z,0.94
2022-11-04T04:11:16.922Z,0.98
2022-11-04T04:14:05.382Z,0.82
2022-11-04T04:16:41.724Z,1.00
2022-11-04T04:19:21.037Z,0.80
2022-11-04T04:22:04.831Z,0.97
2022-11-04T04:24:57.968Z,0.41
2022-11-04T04:27:31.049Z,0.93
2022-11-04T04:30:05.766Z,0.90
2022-11-04T04:32:49.473Z,0.85
2022-11-04T04:35:36.524Z,0.11
2022-11-04T04:38:25.514Z,0.30
2022-11-04T04:41:34.901Z,-0.44
2022-11-04T04:44:21.583Z,0.30
2022-11-04T04:46:52.289Z,0.66
2022-11-04T04:49:19.265Z,0.47
2022-11-04T04:51:48.523Z,0.75
2022-11-04T04:54:15.729Z,0.70
2022-11-04T04:56:42.763Z,0.51
2022-11-04T04:59:09.784Z,0.60
2022-11-04T05:01:37.107Z,-1.36
2022-11-04T05:04:04.349Z,0.61
2022-11-04T05:06:32.588Z,0.53
2022-11-04T05:08:59.624Z,0.64
2022-11-04T05:11:27.371Z,0.46
2022-11-04T05:13:55.040Z,0.42
2022-11-04T05:16:22.305Z,0.45
2022-11-04T05:18:52.508Z,0.31
2022-11-04T05:21:19.621Z,0.51
2022-11-04T05:23:47.557Z,0.50
2022-11-04T05:26:15.196Z,0.36
2022-11-04T05:28:42.303Z,0.35
2022-11-04T05:31:09.487Z,0.09
2022-11-04T05:33:36.499Z,0.60
2022-11-04T05:36:11.754Z,0.68
2022-11-04T05:38:39.401Z,0.60
2022-11-04T05:41:08.743Z,0.64
2022-11-04T05:43:36.459Z,0.29
2022-11-04T05:46:04.203Z,0.41
2022-11-04T05:48:33.170Z,-0.03
2022-11-04T05:51:03.639Z,0.14
2022-11-04T05:53:30.748Z,0.57
2022-11-04T05:55:57.827Z,0.79
2022-11-04T05:58:25.020Z,0.14
2022-11-04T06:00:52.060Z,0.71
2022-11-04T06:03:19.098Z,0.88
2022-11-04T06:05:46.114Z,0.81
2022-11-04T06:08:13.116Z,0.81
2022-11-04T06:10:40.413Z,0.83
2022-11-04T06:13:07.339Z,0.86
2022-11-04T06:15:34.250Z,0.99
2022-11-04T06:18:01.426Z,1.07
2022-11-04T06:20:28.623Z,1.11
2022-11-04T06:22:55.521Z,1.21
2022-11-04T06:25:22.541Z,0.88
2022-11-04T06:27:49.533Z,0.54
2022-11-04T06:30:16.667Z,1.26
2022-11-04T06:32:43.751Z,1.09
2022-11-04T06:35:10.824Z,1.27
2022-11-04T06:37:38.027Z,0.96
2022-11-04T06:40:05.562Z,1.19
2022-11-04T06:42:32.526Z,1.40
2022-11-04T06:44:59.622Z,0.97
2022-11-04T06:47:26.699Z,1.38
2022-11-04T06:49:53.676Z,1.26
2022-11-04T06:52:20.593Z,1.42
2022-11-04T06:54:48.137Z,1.51
2022-11-04T06:57:15.231Z,1.46
2022-11-04T06:59:42.231Z,1.37
2022-11-04T07:02:13.278Z,1.06
2022-11-04T07:04:40.277Z,0.78
2022-11-04T07:07:07.977Z,1.22
2022-11-04T07:09:35.473Z,0.54
2022-11-04T07:12:02.836Z,1.46
2022-11-04T07:14:29.806Z,1.01
2022-11-04T07:16:56.821Z,0.96
2022-11-04T07:19:23.840Z,1.51
2022-11-04T07:21:50.886Z,1.57
2022-11-04T07:24:18.783Z,1.60
2022-11-04T07:26:45.835Z,1.48
2022-11-04T07:29:12.861Z,1.52
2022-11-04T07:31:39.907Z,1.57
2022-11-04T07:34:07.009Z,1.51
2022-11-04T07:36:34.307Z,1.62
2022-11-04T07:39:02.153Z,1.55
2022-11-04T07:41:29.695Z,1.70
2022-11-04T07:43:58.918Z,1.72
2022-11-04T07:46:26.011Z,1.72
2022-11-04T07:48:53.174Z,1.83
2022-11-04T07:51:21.616Z,1.78
2022-11-04T07:53:48.652Z,1.88
2022-11-04T07:56:16.129Z,1.89
2022-11-04T07:58:43.290Z,1.89
2022-11-04T08:01:13.703Z,1.95
2022-11-04T08:03:40.900Z,1.94
2022-11-04T08:06:09.942Z,1.72
2022-11-04T08:08:37.588Z,1.83
2022-11-04T08:11:17.306Z,1.86
2022-11-04T08:13:45.726Z,1.86
2022-11-04T08:16:15.580Z,1.72
2022-11-04T08:18:44.003Z,1.58
2022-11-04T08:21:11.728Z,1.62
2022-11-04T08:23:39.069Z,1.70
2022-11-04T08:26:11.622Z,1.80
2022-11-04T08:28:39.178Z,1.83
2022-11-04T08:31:14.093Z,1.88
2022-11-04T08:33:41.640Z,1.90
2022-11-04T08:36:12.615Z,1.96
2022-11-04T08:38:39.839Z,2.03
2022-11-04T08:41:08.743Z,1.94
2022-11-04T08:43:36.203Z,2.08
2022-11-04T08:46:06.771Z,1.49
2022-11-04T08:48:43.471Z,2.06
2022-11-04T08:51:23.549Z,1.61
2022-11-04T08:53:50.661Z,2.01
2022-11-04T08:56:22.333Z,2.00
2022-11-04T08:58:50.092Z,2.02
2022-11-04T09:01:20.910Z,2.06
2022-11-04T09:03:49.159Z,2.09
2022-11-04T09:06:23.485Z,2.04
2022-11-04T09:08:51.375Z,2.10
2022-11-04T09:11:18.786Z,2.19
2022-11-04T09:13:45.796Z,2.07
2022-11-04T09:16:14.458Z,1.78
2022-11-04T09:18:42.248Z,2.27
2022-11-04T09:21:10.781Z,1.98
2022-11-04T09:23:38.803Z,1.61
2022-11-04T09:26:15.106Z,1.28
2022-11-04T09:28:42.726Z,2.30
2022-11-04T09:31:19.153Z,1.67
2022-11-04T09:33:46.346Z,2.30
2022-11-04T09:36:14.381Z,2.41
2022-11-04T09:38:42.434Z,2.36
2022-11-04T09:41:12.372Z,2.42
2022-11-04T09:43:58.874Z,2.24
2022-11-04T09:46:27.593Z,2.37
2022-11-04T09:48:57.804Z,2.22
2022-11-04T09:51:52.696Z,2.17
2022-11-04T09:54:31.041Z,1.86
2022-11-04T09:57:01.947Z,2.24
2022-11-04T09:59:34.338Z,2.38
2022-11-04T10:02:38.585Z,2.28
2022-11-04T10:05:23.841Z,1.82
2022-11-04T10:08:23.027Z,1.76
2022-11-04T10:11:05.724Z,2.13
2022-11-04T10:13:49.414Z,2.21
2022-11-04T10:16:32.009Z,2.25
2022-11-04T10:19:15.902Z,2.28
2022-11-04T10:21:55.356Z,2.22
2022-11-04T10:24:40.618Z,2.20
2022-11-04T10:27:17.712Z,2.15
2022-11-04T10:29:48.964Z,2.18
2022-11-04T10:32:25.042Z,2.18
2022-11-04T10:35:18.173Z,2.35
2022-11-04T10:37:51.373Z,2.22
2022-11-04T10:40:25.378Z,2.57
2022-11-04T10:42:53.873Z,2.61
2022-11-04T10:45:26.994Z,2.64
2022-11-04T10:48:03.609Z,2.71
2022-11-04T10:50:49.230Z,2.77
2022-11-04T10:53:20.674Z,2.78
2022-11-04T10:56:07.319Z,2.67
2022-11-04T10:58:45.201Z,2.79
2022-11-04T11:01:31.898Z,2.25
2022-11-04T11:04:02.089Z,2.82
2022-11-04T11:06:34.603Z,2.84
2022-11-04T11:09:53.406Z,2.87
2022-11-04T11:12:51.984Z,2.89
2022-11-04T11:16:02.747Z,2.79
2022-11-04T11:19:13.034Z,2.86
2022-11-04T11:22:26.277Z,2.64
2022-11-04T11:25:45.433Z,2.77
2022-11-04T11:29:09.779Z,2.70
2022-11-04T11:32:17.226Z,2.70
2022-11-04T11:35:27.496Z,2.66
2022-11-04T11:38:37.662Z,2.72
2022-11-04T11:41:49.132Z,2.72
2022-11-04T11:44:35.510Z,2.53
2022-11-04T11:47:08.223Z,2.69
2022-11-04T11:49:36.909Z,2.68
2022-11-04T11:52:22.947Z,2.78
2022-11-04T11:54:55.286Z,2.45
2022-11-04T11:57:45.191Z,2.71
2022-11-04T12:03:21.035Z,2.00
2022-11-04T12:06:18.441Z,2.43
2022-11-04T12:09:20.571Z,2.66
2022-11-04T12:12:03.380Z,2.63
2022-11-04T12:14:43.579Z,2.15
2022-11-04T12:17:26.045Z,2.04
2022-11-04T12:20:15.749Z,2.16
2022-11-04T12:22:42.750Z,2.72
2022-11-04T12:25:31.302Z,2.76
2022-11-04T12:28:10.224Z,2.15
2022-11-04T12:31:15.714Z,2.78
2022-11-04T12:34:21.150Z,2.73
2022-11-04T12:37:32.604Z,2.63
2022-11-04T12:40:12.790Z,2.47
2022-11-04T12:42:52.178Z,2.20
2022-11-04T12:46:02.302Z,2.51
2022-11-04T12:49:07.241Z,2.72
2022-11-04T12:51:42.579Z,2.78
2022-11-04T12:54:40.106Z,2.21
2022-11-04T12:57:27.308Z,2.13
2022-11-04T13:00:10.064Z,2.66
2022-11-04T13:03:09.313Z,2.71
2022-11-04T13:06:15.007Z,2.11
2022-11-04T13:09:00.776Z,2.17
2022-11-04T13:11:41.844Z,2.67
2022-11-04T13:14:29.638Z,2.66
2022-11-04T13:17:01.443Z,2.63
2022-11-04T13:19:49.552Z,2.74
2022-11-04T13:22:23.674Z,2.52
2022-11-04T13:24:56.065Z,2.66
2022-11-04T13:27:27.157Z,2.70
2022-11-04T13:30:05.565Z,2.05
2022-11-04T13:33:13.781Z,2.65
2022-11-04T13:35:46.950Z,2.13
2022-11-04T13:38:24.265Z,2.44
2022-11-04T13:41:21.709Z,2.17
2022-11-04T13:44:02.091Z,2.67
2022-11-04T13:46:33.287Z,2.52
2022-11-04T13:49:11.706Z,2.36
2022-11-04T13:51:47.756Z,2.75
2022-11-04T13:54:37.992Z,2.76
2022-11-04T13:57:12.448Z,2.62
2022-11-04T13:59:40.734Z,2.47
2022-11-04T14:02:20.109Z,2.66
2022-11-04T14:04:47.843Z,2.62
2022-11-04T14:07:18.705Z,2.60
2022-11-04T14:09:55.028Z,2.23
2022-11-04T14:12:30.965Z,2.43
2022-11-04T14:15:16.551Z,2.58
2022-11-04T14:17:43.522Z,2.61
2022-11-04T14:20:22.529Z,1.89
2022-11-04T14:22:57.345Z,2.35
2022-11-04T14:25:31.276Z,2.63
2022-11-04T14:28:02.629Z,2.66
2022-11-04T14:30:35.555Z,2.54
2022-11-04T14:33:28.834Z,2.70
2022-11-04T14:35:57.784Z,1.91
2022-11-04T14:38:30.404Z,2.54
2022-11-04T14:41:35.487Z,2.40
2022-11-04T14:44:12.836Z,2.43
2022-11-04T14:46:45.737Z,2.59
2022-11-04T14:49:27.904Z,2.57
2022-11-04T14:51:55.570Z,2.50
2022-11-04T14:54:25.716Z,2.55
2022-11-04T14:56:53.600Z,2.54
2022-11-04T14:59:23.173Z,2.47
2022-11-04T15:01:52.765Z,2.40
2022-11-04T15:04:31.061Z,2.41
2022-11-04T15:07:00.352Z,2.46
2022-11-04T15:09:41.055Z,2.41
2022-11-04T15:12:31.508Z,2.34
2022-11-04T15:15:00.070Z,2.37
2022-11-04T15:17:32.997Z,2.37
2022-11-04T15:20:04.447Z,2.55
2022-11-04T15:22:31.664Z,2.02
2022-11-04T15:25:03.445Z,2.50
2022-11-04T15:27:30.837Z,2.49
2022-11-04T15:30:00.929Z,2.51
2022-11-04T15:32:28.800Z,2.36
2022-11-04T15:34:57.704Z,2.42
2022-11-04T15:37:26.612Z,2.47
2022-11-04T15:39:57.070Z,2.01
2022-11-04T15:42:45.847Z,2.42
2022-11-04T15:45:38.852Z,2.56
2022-11-04T15:48:25.897Z,2.14
2022-11-04T15:51:13.903Z,2.49
2022-11-04T15:54:06.762Z,2.63
2022-11-04T15:56:40.003Z,2.55
2022-11-04T15:59:15.254Z,2.40
2022-11-04T16:01:52.197Z,1.90
2022-11-04T16:04:21.650Z,2.61
2022-11-04T16:07:04.971Z,1.89
2022-11-04T16:09:44.535Z,2.53
2022-11-04T16:12:24.044Z,2.55
2022-11-04T16:14:52.713Z,2.39
2022-11-04T16:17:21.339Z,0.74
2022-11-04T16:19:52.389Z,2.33
2022-11-04T16:22:30.999Z,2.42
2022-11-04T16:25:00.938Z,2.45
2022-11-04T16:27:30.678Z,1.98
2022-11-04T16:30:06.758Z,2.45
2022-11-04T16:32:49.912Z,2.53
2022-11-04T16:35:25.249Z,2.46
2022-11-04T16:37:53.685Z,2.47
2022-11-04T16:40:23.878Z,2.44
2022-11-04T16:42:51.317Z,1.84
2022-11-04T16:45:31.613Z,2.48
2022-11-04T16:47:59.031Z,2.46
2022-11-04T16:50:26.318Z,2.33
2022-11-04T16:52:54.055Z,2.40
2022-11-04T16:55:23.712Z,1.53
2022-11-04T16:57:56.742Z,2.19
2022-11-04T17:00:27.647Z,2.37
2022-11-04T17:02:55.094Z,2.22
2022-11-04T17:05:22.252Z,2.24
2022-11-04T17:07:54.572Z,2.39
2022-11-04T17:10:27.173Z,2.36
2022-11-04T17:12:54.216Z,2.28
2022-11-04T17:15:21.829Z,2.36
2022-11-04T17:17:48.951Z,2.37
2022-11-04T17:20:20.703Z,2.01
2022-11-04T17:22:49.140Z,2.29
2022-11-04T17:25:22.521Z,2.24
2022-11-04T17:27:50.826Z,1.83
2022-11-04T17:30:19.047Z,2.36
2022-11-04T17:32:46.886Z,2.18
2022-11-04T17:35:16.744Z,2.27
2022-11-04T17:37:44.419Z,2.10
2022-11-04T17:40:17.128Z,1.81
2022-11-04T17:43:07.012Z,2.22
2022-11-04T17:45:38.828Z,2.31
2022-11-04T17:48:06.752Z,2.22
2022-11-04T17:50:34.397Z,1.17
2022-11-04T17:53:01.511Z,2.27
2022-11-04T17:55:28.738Z,2.09
2022-11-04T17:57:56.149Z,2.17
2022-11-04T18:00:29.735Z,2.15
2022-11-04T18:02:57.558Z,1.68
2022-11-04T18:05:24.737Z,2.00
2022-11-04T18:07:53.947Z,2.00
2022-11-04T18:10:21.026Z,2.22
2022-11-04T18:12:48.203Z,2.21
2022-11-04T18:15:17.429Z,2.10
2022-11-04T18:17:45.374Z,2.01
2022-11-04T18:20:15.608Z,2.22
2022-11-04T18:22:43.661Z,2.17
2022-11-04T18:25:12.155Z,2.10
2022-11-04T18:27:39.347Z,2.14
2022-11-04T18:30:07.269Z,2.00
2022-11-04T18:32:34.476Z,2.14
2022-11-04T18:35:02.932Z,2.22
2022-11-04T18:37:30.272Z,2.05
2022-11-04T18:39:57.327Z,2.10
2022-11-04T18:42:24.950Z,2.17
2022-11-04T18:44:52.206Z,2.21
2022-11-04T18:47:20.221Z,1.58
2022-11-04T18:49:47.812Z,1.62
2022-11-04T18:52:14.968Z,2.04
2022-11-04T18:54:44.905Z,2.09
2022-11-04T18:57:12.320Z,2.13
2022-11-04T18:59:39.596Z,2.11
2022-11-04T19:02:07.256Z,2.12
2022-11-04T19:04:34.751Z,2.22
2022-11-04T19:07:02.133Z,2.24
2022-11-04T19:09:47.507Z,2.18
2022-11-04T19:12:34.584Z,1.68
2022-11-04T19:15:04.152Z,2.20
2022-11-04T19:17:31.538Z,1.48
2022-11-04T19:19:58.643Z,2.15
2022-11-04T19:22:25.654Z,1.89
2022-11-04T19:24:53.317Z,1.91
2022-11-04T19:27:23.026Z,2.22
2022-11-04T19:29:50.174Z,2.13
2022-11-04T19:32:17.318Z,2.23
2022-11-04T19:34:44.421Z,2.26
2022-11-04T19:37:11.599Z,2.12
2022-11-04T19:39:38.889Z,2.15
2022-11-04T19:42:25.382Z,2.16
2022-11-04T19:44:53.234Z,2.11
2022-11-04T19:47:20.500Z,2.15
2022-11-04T19:49:47.803Z,1.94
2022-11-04T19:52:15.006Z,2.18
2022-11-04T19:54:42.205Z,2.26
2022-11-04T19:57:09.292Z,2.02
2022-11-04T19:59:36.433Z,2.13
2022-11-04T20:02:03.743Z,2.18
2022-11-04T20:04:30.944Z,1.53
2022-11-04T20:06:57.985Z,2.14
2022-11-04T20:09:26.280Z,2.25
2022-11-04T20:12:11.920Z,2.36
2022-11-04T20:14:40.658Z,2.01
2022-11-04T20:17:07.677Z,1.02
2022-11-04T20:19:35.581Z,2.31
2022-11-04T20:22:03.624Z,2.30
2022-11-04T20:24:30.876Z,2.16
2022-11-04T20:26:58.190Z,2.10
2022-11-04T20:29:25.278Z,2.16
2022-11-04T20:31:53.835Z,2.09
2022-11-04T20:34:20.955Z,2.23
2022-11-04T20:36:48.057Z,2.28
2022-11-04T20:39:19.801Z,2.22
2022-11-04T20:41:47.424Z,2.29
2022-11-04T20:44:15.642Z,2.16
2022-11-04T20:46:43.714Z,2.28
2022-11-04T20:49:11.535Z,2.05
2022-11-04T20:51:48.641Z,2.19
2022-11-04T20:54:17.453Z,2.29
2022-11-04T20:56:45.518Z,2.24
2022-11-04T20:59:16.880Z,2.10
2022-11-04T21:01:46.436Z,2.34
2022-11-04T21:04:20.435Z,2.32
2022-11-04T21:06:49.605Z,1.18
2022-11-04T21:09:19.480Z,2.22
2022-11-04T21:11:46.891Z,2.21
2022-11-04T21:14:16.400Z,2.26
2022-11-04T21:16:44.128Z,2.10
2022-11-04T21:19:16.041Z,1.68
2022-11-04T21:21:44.471Z,2.13
2022-11-04T21:24:13.374Z,2.21
2022-11-04T21:26:40.881Z,2.20
2022-11-04T21:29:12.769Z,2.20
2022-11-04T21:31:41.322Z,2.16
2022-11-04T21:34:08.500Z,2.17
2022-11-04T21:36:35.795Z,1.71
2022-11-04T21:39:03.054Z,1.92
2022-11-04T21:41:33.853Z,2.07
2022-11-04T21:44:02.774Z,2.08
2022-11-04T21:46:32.408Z,2.10
2022-11-04T21:48:59.614Z,2.13
2022-11-04T21:51:29.647Z,2.20
2022-11-04T21:53:58.278Z,2.24
2022-11-04T21:56:27.825Z,2.16
2022-11-04T21:58:55.703Z,2.30
2022-11-04T22:01:26.440Z,2.07
2022-11-04T22:03:56.094Z,2.31
2022-11-04T22:06:23.847Z,1.77
2022-11-04T22:08:54.486Z,2.27
2022-11-04T22:11:30.383Z,2.29
2022-11-04T22:14:01.532Z,1.72
2022-11-04T22:16:30.916Z,1.99
2022-11-04T22:19:00.202Z,2.30
2022-11-04T22:21:29.034Z,2.14
2022-11-04T22:23:57.019Z,2.13
2022-11-04T22:26:26.946Z,2.17
2022-11-04T22:28:55.058Z,2.26
2022-11-04T22:31:25.371Z,2.27
2022-11-04T22:33:53.521Z,2.19
2022-11-04T22:36:21.091Z,2.29
2022-11-04T22:38:48.193Z,1.90
2022-11-04T22:41:18.979Z,2.27
2022-11-04T22:43:45.963Z,2.29
2022-11-04T22:46:22.071Z,1.68
2022-11-04T22:48:49.023Z,2.30
2022-11-04T22:51:16.421Z,2.14
2022-11-04T22:53:43.717Z,1.71
2022-11-04T22:56:13.802Z,1.53
2022-11-04T22:58:41.079Z,2.28
2022-11-04T23:01:13.387Z,2.27
2022-11-04T23:03:41.529Z,2.11
2022-11-04T23:06:10.361Z,2.23
2022-11-04T23:08:40.188Z,2.16
2022-11-04T23:11:38.163Z,2.18
2022-11-04T23:14:23.758Z,2.22
2022-11-04T23:17:10.628Z,2.08
2022-11-04T23:19:38.728Z,2.22
2022-11-04T23:22:25.536Z,2.21
2022-11-04T23:25:06.092Z,2.24
2022-11-04T23:27:53.060Z,2.12
2022-11-04T23:30:27.091Z,1.98
2022-11-04T23:32:59.306Z,1.50
2022-11-04T23:35:49.150Z,1.94
2022-11-04T23:38:16.729Z,2.09
2022-11-04T23:41:04.296Z,2.16
2022-11-04T23:43:31.852Z,1.43
2022-11-04T23:46:17.416Z,2.08
2022-11-04T23:49:03.046Z,2.16
2022-11-04T23:51:49.229Z,2.18
2022-11-04T23:54:34.939Z,0.31
2022-11-04T23:57:20.681Z,2.17
